sensor_id;sensor_type;location;lat;lon;timestamp;pressure;altitude;pressure_sealevel;temperature;humidity
33151;BME280;19508;42.578;23.416;2023-02-22T00:01:15;93672.69;;;4.95;61.45
33151;BME280;19508;42.578;23.416;2023-02-22T00:03:53;93675.47;;;4.88;61.72
33151;BME280;19508;42.578;23.416;2023-02-22T00:06:20;93673.75;;;4.94;61.20
33151;BME280;19508;42.578;23.416;2023-02-22T00:08:50;93677.22;;;4.94;60.77
33151;BME280;19508;42.578;23.416;2023-02-22T00:11:20;93682.50;;;4.82;61.21
33151;BME280;19508;42.578;23.416;2023-02-22T00:13:45;93683.59;;;4.75;61.48
33151;BME280;19508;42.578;23.416;2023-02-22T00:16:20;93679.06;;;4.75;61.77
33151;BME280;19508;42.578;23.416;2023-02-22T00:18:46;93678.03;;;4.76;61.44
33151;BME280;19508;42.578;23.416;2023-02-22T00:21:13;93679.06;;;4.75;61.35
33151;BME280;19508;42.578;23.416;2023-02-22T00:23:41;93673.59;;;4.70;61.82
33151;BME280;19508;42.578;23.416;2023-02-22T00:26:11;93673.59;;;4.89;61.29
33151;BME280;19508;42.578;23.416;2023-02-22T00:28:37;93673.50;;;4.77;61.12
33151;BME280;19508;42.578;23.416;2023-02-22T00:31:04;93678.25;;;4.75;61.48
33151;BME280;19508;42.578;23.416;2023-02-22T00:33:31;93668.16;;;4.59;62.11
33151;BME280;19508;42.578;23.416;2023-02-22T00:35:57;93674.84;;;4.68;62.24
33151;BME280;19508;42.578;23.416;2023-02-22T00:38:23;93670.19;;;4.63;62.04
33151;BME280;19508;42.578;23.416;2023-02-22T00:40:48;93678.59;;;4.60;62.74
33151;BME280;19508;42.578;23.416;2023-02-22T00:43:14;93657.13;;;4.55;62.40
33151;BME280;19508;42.578;23.416;2023-02-22T00:45:39;93665.28;;;4.60;62.27
33151;BME280;19508;42.578;23.416;2023-02-22T00:48:06;93662.19;;;4.63;62.15
33151;BME280;19508;42.578;23.416;2023-02-22T00:50:33;93659.75;;;4.62;62.11
33151;BME280;19508;42.578;23.416;2023-02-22T00:53:00;93657.84;;;4.44;62.33
33151;BME280;19508;42.578;23.416;2023-02-22T00:55:28;93661.81;;;4.35;62.89
33151;BME280;19508;42.578;23.416;2023-02-22T00:57:54;93649.53;;;4.34;62.52
33151;BME280;19508;42.578;23.416;2023-02-22T01:00:22;93664.16;;;4.24;63.12
33151;BME280;19508;42.578;23.416;2023-02-22T01:02:50;93651.88;;;4.23;62.99
33151;BME280;19508;42.578;23.416;2023-02-22T01:05:18;93652.75;;;4.17;63.10
33151;BME280;19508;42.578;23.416;2023-02-22T01:07:43;93650.09;;;4.17;62.93
33151;BME280;19508;42.578;23.416;2023-02-22T01:10:10;93651.13;;;4.16;63.24
33151;BME280;19508;42.578;23.416;2023-02-22T01:12:36;93649.34;;;4.10;62.93
33151;BME280;19508;42.578;23.416;2023-02-22T01:15:03;93644.16;;;4.15;62.82
33151;BME280;19508;42.578;23.416;2023-02-22T01:17:29;93637.75;;;4.23;62.07
33151;BME280;19508;42.578;23.416;2023-02-22T01:19:55;93644.75;;;4.17;62.81
33151;BME280;19508;42.578;23.416;2023-02-22T01:22:21;93633.91;;;4.19;62.81
33151;BME280;19508;42.578;23.416;2023-02-22T01:24:48;93641.66;;;4.20;62.72
33151;BME280;19508;42.578;23.416;2023-02-22T01:27:14;93638.38;;;4.18;62.89
33151;BME280;19508;42.578;23.416;2023-02-22T01:29:40;93626.22;;;4.04;62.87
33151;BME280;19508;42.578;23.416;2023-02-22T01:32:06;93631.16;;;4.01;63.26
33151;BME280;19508;42.578;23.416;2023-02-22T01:34:31;93638.97;;;4.02;62.81
33151;BME280;19508;42.578;23.416;2023-02-22T01:36:58;93634.91;;;3.93;62.96
33151;BME280;19508;42.578;23.416;2023-02-22T01:39:24;93631.69;;;3.84;64.10
33151;BME280;19508;42.578;23.416;2023-02-22T01:41:49;93632.09;;;3.88;63.54
33151;BME280;19508;42.578;23.416;2023-02-22T01:46:53;93633.63;;;3.77;63.86
33151;BME280;19508;42.578;23.416;2023-02-22T01:49:19;93631.63;;;3.66;64.15
33151;BME280;19508;42.578;23.416;2023-02-22T01:51:48;93625.75;;;3.57;64.06
33151;BME280;19508;42.578;23.416;2023-02-22T01:54:22;93630.47;;;3.55;64.39
33151;BME280;19508;42.578;23.416;2023-02-22T01:59:24;93628.50;;;3.44;64.45
33151;BME280;19508;42.578;23.416;2023-02-22T02:01:50;93634.50;;;3.33;64.98
33151;BME280;19508;42.578;23.416;2023-02-22T02:04:20;93638.59;;;3.35;65.54
33151;BME280;19508;42.578;23.416;2023-02-22T02:06:53;93637.00;;;3.28;65.59
33151;BME280;19508;42.578;23.416;2023-02-22T02:09:26;93642.66;;;3.38;65.53
33151;BME280;19508;42.578;23.416;2023-02-22T02:11:57;93639.44;;;3.29;65.39
33151;BME280;19508;42.578;23.416;2023-02-22T02:14:25;93638.69;;;3.16;66.11
33151;BME280;19508;42.578;23.416;2023-02-22T02:16:51;93634.22;;;3.09;66.25
33151;BME280;19508;42.578;23.416;2023-02-22T02:33:30;93644.06;;;3.09;66.36
33151;BME280;19508;42.578;23.416;2023-02-22T02:36:13;93645.09;;;3.08;66.61
33151;BME280;19508;42.578;23.416;2023-02-22T02:38:47;93643.25;;;3.08;66.57
33151;BME280;19508;42.578;23.416;2023-02-22T02:41:18;93637.94;;;3.02;66.49
33151;BME280;19508;42.578;23.416;2023-02-22T02:52:09;93649.66;;;2.88;66.91
33151;BME280;19508;42.578;23.416;2023-02-22T02:54:37;93646.97;;;2.94;66.36
33151;BME280;19508;42.578;23.416;2023-02-22T02:57:03;93658.06;;;2.91;66.25
33151;BME280;19508;42.578;23.416;2023-02-22T02:59:35;93652.28;;;3.01;65.80
33151;BME280;19508;42.578;23.416;2023-02-22T03:05:40;93650.31;;;2.83;67.05
33151;BME280;19508;42.578;23.416;2023-02-22T03:10:54;93657.84;;;2.93;66.95
33151;BME280;19508;42.578;23.416;2023-02-22T03:13:35;93660.50;;;2.86;67.54
33151;BME280;19508;42.578;23.416;2023-02-22T03:22:09;93659.34;;;2.75;67.87
33151;BME280;19508;42.578;23.416;2023-02-22T03:24:44;93665.63;;;2.81;67.45
33151;BME280;19508;42.578;23.416;2023-02-22T03:27:31;93671.38;;;2.78;67.63
33151;BME280;19508;42.578;23.416;2023-02-22T03:30:04;93668.13;;;2.76;67.40
33151;BME280;19508;42.578;23.416;2023-02-22T03:32:37;93663.63;;;2.70;67.79
33151;BME280;19508;42.578;23.416;2023-02-22T03:35:22;93650.91;;;2.78;67.14
33151;BME280;19508;42.578;23.416;2023-02-22T03:37:54;93661.34;;;2.80;67.03
33151;BME280;19508;42.578;23.416;2023-02-22T03:40:25;93676.94;;;2.70;67.51
33151;BME280;19508;42.578;23.416;2023-02-22T03:42:56;93672.50;;;2.37;68.96
33151;BME280;19508;42.578;23.416;2023-02-22T03:45:24;93672.47;;;2.50;68.61
33151;BME280;19508;42.578;23.416;2023-02-22T03:47:56;93673.50;;;2.49;68.43
33151;BME280;19508;42.578;23.416;2023-02-22T03:50:28;93669.22;;;2.48;68.67
33151;BME280;19508;42.578;23.416;2023-02-22T03:52:57;93674.94;;;2.45;68.46
33151;BME280;19508;42.578;23.416;2023-02-22T03:55:23;93671.28;;;2.40;69.09
33151;BME280;19508;42.578;23.416;2023-02-22T03:57:52;93668.00;;;2.38;69.39
33151;BME280;19508;42.578;23.416;2023-02-22T04:02:47;93655.31;;;2.46;68.66
33151;BME280;19508;42.578;23.416;2023-02-22T04:05:13;93670.81;;;2.63;68.56
33151;BME280;19508;42.578;23.416;2023-02-22T04:07:40;93674.91;;;2.65;68.37
33151;BME280;19508;42.578;23.416;2023-02-22T04:10:05;93666.72;;;2.67;68.44
33151;BME280;19508;42.578;23.416;2023-02-22T04:12:34;93665.84;;;2.79;68.10
33151;BME280;19508;42.578;23.416;2023-02-22T04:15:00;93667.91;;;2.84;68.15
33151;BME280;19508;42.578;23.416;2023-02-22T04:17:25;93660.75;;;2.78;68.54
33151;BME280;19508;42.578;23.416;2023-02-22T04:19:50;93659.28;;;2.89;68.24
33151;BME280;19508;42.578;23.416;2023-02-22T04:22:16;93650.06;;;2.91;68.13
33151;BME280;19508;42.578;23.416;2023-02-22T04:24:42;93660.28;;;2.94;68.21
33151;BME280;19508;42.578;23.416;2023-02-22T04:27:07;93645.75;;;2.90;67.80
33151;BME280;19508;42.578;23.416;2023-02-22T04:29:32;93655.00;;;2.81;68.33
33151;BME280;19508;42.578;23.416;2023-02-22T04:31:58;93667.00;;;3.03;67.95
33151;BME280;19508;42.578;23.416;2023-02-22T04:34:23;93654.41;;;2.79;68.87
33151;BME280;19508;42.578;23.416;2023-02-22T04:36:49;93664.19;;;2.85;68.78
33151;BME280;19508;42.578;23.416;2023-02-22T04:39:17;93668.28;;;2.81;68.67
33151;BME280;19508;42.578;23.416;2023-02-22T04:41:42;93672.00;;;2.73;68.79
33151;BME280;19508;42.578;23.416;2023-02-22T04:44:08;93662.22;;;2.61;69.00
33151;BME280;19508;42.578;23.416;2023-02-22T04:46:33;93658.91;;;2.78;68.70
33151;BME280;19508;42.578;23.416;2023-02-22T04:48:58;93668.16;;;2.56;68.72
33151;BME280;19508;42.578;23.416;2023-02-22T04:51:24;93662.69;;;2.38;69.44
33151;BME280;19508;42.578;23.416;2023-02-22T04:53:50;93670.03;;;2.42;69.91
33151;BME280;19508;42.578;23.416;2023-02-22T04:56:19;93666.97;;;2.45;70.25
33151;BME280;19508;42.578;23.416;2023-02-22T04:58:44;93667.59;;;2.21;70.28
33151;BME280;19508;42.578;23.416;2023-02-22T05:01:10;93664.34;;;2.12;70.23
33151;BME280;19508;42.578;23.416;2023-02-22T05:03:38;93672.94;;;2.14;71.02
33151;BME280;19508;42.578;23.416;2023-02-22T05:06:04;93657.00;;;2.08;71.03
33151;BME280;19508;42.578;23.416;2023-02-22T05:08:29;93667.22;;;2.11;71.13
33151;BME280;19508;42.578;23.416;2023-02-22T05:10:54;93665.78;;;2.15;71.15
33151;BME280;19508;42.578;23.416;2023-02-22T05:13:20;93661.47;;;2.20;70.47
33151;BME280;19508;42.578;23.416;2023-02-22T05:15:46;93654.94;;;2.23;70.82
33151;BME280;19508;42.578;23.416;2023-02-22T05:18:12;93667.22;;;2.11;70.95
33151;BME280;19508;42.578;23.416;2023-02-22T05:20:38;93666.81;;;2.14;71.57
33151;BME280;19508;42.578;23.416;2023-02-22T05:23:03;93663.91;;;2.22;71.73
33151;BME280;19508;42.578;23.416;2023-02-22T05:25:30;93667.22;;;2.24;71.36
33151;BME280;19508;42.578;23.416;2023-02-22T05:28:04;93661.47;;;2.27;70.89
33151;BME280;19508;42.578;23.416;2023-02-22T05:30:34;93666.38;;;2.30;71.04
33151;BME280;19508;42.578;23.416;2023-02-22T05:33:00;93673.72;;;2.35;71.05
33151;BME280;19508;42.578;23.416;2023-02-22T05:35:26;93682.72;;;2.40;71.03
33151;BME280;19508;42.578;23.416;2023-02-22T05:37:53;93687.00;;;2.48;70.59
33151;BME280;19508;42.578;23.416;2023-02-22T05:40:20;93694.13;;;2.47;70.23
33151;BME280;19508;42.578;23.416;2023-02-22T05:42:47;93685.78;;;2.50;70.28
33151;BME280;19508;42.578;23.416;2023-02-22T05:45:13;93698.25;;;2.57;70.17
33151;BME280;19508;42.578;23.416;2023-02-22T05:47:38;93699.88;;;2.58;70.20
33151;BME280;19508;42.578;23.416;2023-02-22T05:50:04;93703.94;;;2.60;69.73
33151;BME280;19508;42.578;23.416;2023-02-22T05:52:30;93705.41;;;2.49;70.05
33151;BME280;19508;42.578;23.416;2023-02-22T05:54:55;93700.66;;;2.65;70.60
33151;BME280;19508;42.578;23.416;2023-02-22T05:57:21;93700.69;;;3.16;69.53
33151;BME280;19508;42.578;23.416;2023-02-22T05:59:46;93698.34;;;3.39;68.37
33151;BME280;19508;42.578;23.416;2023-02-22T06:02:11;93708.47;;;3.62;67.57
33151;BME280;19508;42.578;23.416;2023-02-22T06:04:37;93704.16;;;3.93;67.85
33151;BME280;19508;42.578;23.416;2023-02-22T06:07:02;93697.72;;;4.07;67.57
33151;BME280;19508;42.578;23.416;2023-02-22T06:09:28;93710.25;;;4.32;66.84
33151;BME280;19508;42.578;23.416;2023-02-22T06:11:53;93720.09;;;4.56;66.25
33151;BME280;19508;42.578;23.416;2023-02-22T06:14:19;93703.84;;;4.82;65.12
33151;BME280;19508;42.578;23.416;2023-02-22T06:16:51;93703.84;;;5.19;64.31
33151;BME280;19508;42.578;23.416;2023-02-22T06:19:16;93702.84;;;5.80;63.55
33151;BME280;19508;42.578;23.416;2023-02-22T06:21:51;93701.00;;;5.99;62.30
33151;BME280;19508;42.578;23.416;2023-02-22T06:24:17;93700.16;;;6.52;61.28
33151;BME280;19508;42.578;23.416;2023-02-22T06:26:42;93698.53;;;6.86;59.39
33151;BME280;19508;42.578;23.416;2023-02-22T06:29:08;93705.00;;;7.37;58.15
33151;BME280;19508;42.578;23.416;2023-02-22T06:31:33;93702.41;;;7.82;55.98
33151;BME280;19508;42.578;23.416;2023-02-22T06:33:59;93702.94;;;7.96;55.23
33151;BME280;19508;42.578;23.416;2023-02-22T06:36:25;93689.31;;;8.14;54.55
33151;BME280;19508;42.578;23.416;2023-02-22T06:38:50;93690.91;;;8.77;52.84
33151;BME280;19508;42.578;23.416;2023-02-22T06:41:16;93690.50;;;8.86;52.10
33151;BME280;19508;42.578;23.416;2023-02-22T06:43:41;93687.81;;;9.41;50.77
33151;BME280;19508;42.578;23.416;2023-02-22T06:46:10;93685.66;;;9.87;50.04
33151;BME280;19508;42.578;23.416;2023-02-22T06:48:36;93674.81;;;10.04;49.14
33151;BME280;19508;42.578;23.416;2023-02-22T06:51:03;93677.22;;;9.78;48.88
33151;BME280;19508;42.578;23.416;2023-02-22T06:53:28;93693.34;;;9.78;49.13
33151;BME280;19508;42.578;23.416;2023-02-22T06:55:53;93681.41;;;9.25;50.57
33151;BME280;19508;42.578;23.416;2023-02-22T06:58:19;93678.72;;;9.25;50.80
33151;BME280;19508;42.578;23.416;2023-02-22T07:00:45;93674.91;;;9.65;49.76
33151;BME280;19508;42.578;23.416;2023-02-22T07:03:10;93670.22;;;9.77;49.83
33151;BME280;19508;42.578;23.416;2023-02-22T07:05:38;93677.56;;;10.09;49.00
33151;BME280;19508;42.578;23.416;2023-02-22T07:08:06;93668.16;;;10.38;48.68
33151;BME280;19508;42.578;23.416;2023-02-22T07:10:33;93675.44;;;10.70;47.59
33151;BME280;19508;42.578;23.416;2023-02-22T07:12:59;93674.41;;;11.18;46.52
33151;BME280;19508;42.578;23.416;2023-02-22T07:15:27;93667.75;;;11.31;46.14
33151;BME280;19508;42.578;23.416;2023-02-22T07:17:53;93659.25;;;11.59;44.70
33151;BME280;19508;42.578;23.416;2023-02-22T07:20:19;93669.09;;;11.86;44.64
33151;BME280;19508;42.578;23.416;2023-02-22T07:22:45;93663.19;;;11.94;43.92
33151;BME280;19508;42.578;23.416;2023-02-22T07:25:10;93664.06;;;12.20;43.49
33151;BME280;19508;42.578;23.416;2023-02-22T07:27:40;93665.19;;;12.55;43.45
33151;BME280;19508;42.578;23.416;2023-02-22T07:30:07;93666.56;;;12.78;42.92
33151;BME280;19508;42.578;23.416;2023-02-22T07:32:35;93664.94;;;12.92;41.75
33151;BME280;19508;42.578;23.416;2023-02-22T07:35:00;93669.22;;;13.18;41.77
33151;BME280;19508;42.578;23.416;2023-02-22T07:37:27;93669.78;;;13.36;40.67
33151;BME280;19508;42.578;23.416;2023-02-22T07:39:52;93670.19;;;13.73;40.97
33151;BME280;19508;42.578;23.416;2023-02-22T07:42:18;93662.09;;;13.68;39.97
33151;BME280;19508;42.578;23.416;2023-02-22T07:44:43;93666.78;;;13.32;40.25
33151;BME280;19508;42.578;23.416;2023-02-22T07:47:08;93670.78;;;13.50;40.10
33151;BME280;19508;42.578;23.416;2023-02-22T07:49:36;93666.81;;;13.17;40.16
33151;BME280;19508;42.578;23.416;2023-02-22T07:52:02;93674.63;;;13.39;40.13
33151;BME280;19508;42.578;23.416;2023-02-22T07:54:27;93674.75;;;14.37;38.96
33151;BME280;19508;42.578;23.416;2023-02-22T07:56:53;93677.84;;;14.70;37.31
33151;BME280;19508;42.578;23.416;2023-02-22T07:59:18;93666.41;;;15.07;37.32
33151;BME280;19508;42.578;23.416;2023-02-22T08:01:43;93655.63;;;15.31;36.61
33151;BME280;19508;42.578;23.416;2023-02-22T08:04:10;93664.34;;;15.81;36.20
33151;BME280;19508;42.578;23.416;2023-02-22T08:06:35;93653.28;;;15.96;35.50
33151;BME280;19508;42.578;23.416;2023-02-22T08:09:01;93649.88;;;16.47;35.02
33151;BME280;19508;42.578;23.416;2023-02-22T08:11:26;93645.78;;;16.69;34.21
33151;BME280;19508;42.578;23.416;2023-02-22T08:13:52;93639.97;;;17.40;33.84
33151;BME280;19508;42.578;23.416;2023-02-22T08:16:17;93641.75;;;17.78;33.15
33151;BME280;19508;42.578;23.416;2023-02-22T08:18:42;93641.91;;;17.67;32.69
33151;BME280;19508;42.578;23.416;2023-02-22T08:21:08;93640.91;;;18.18;32.14
33151;BME280;19508;42.578;23.416;2023-02-22T08:23:33;93641.03;;;18.13;31.85
33151;BME280;19508;42.578;23.416;2023-02-22T08:26:07;93638.41;;;18.08;32.01
33151;BME280;19508;42.578;23.416;2023-02-22T08:28:32;93643.25;;;17.84;31.98
33151;BME280;19508;42.578;23.416;2023-02-22T08:30:58;93645.84;;;17.61;32.45
33151;BME280;19508;42.578;23.416;2023-02-22T08:33:23;93641.50;;;17.60;32.58
33151;BME280;19508;42.578;23.416;2023-02-22T08:35:49;93646.22;;;17.68;32.64
33151;BME280;19508;42.578;23.416;2023-02-22T08:38:27;93642.97;;;17.71;32.24
33151;BME280;19508;42.578;23.416;2023-02-22T08:40:53;93646.41;;;17.31;33.04
33151;BME280;19508;42.578;23.416;2023-02-22T08:43:20;93642.50;;;17.64;33.33
33151;BME280;19508;42.578;23.416;2023-02-22T08:45:46;93643.94;;;17.15;33.04
33151;BME280;19508;42.578;23.416;2023-02-22T08:48:12;93642.31;;;16.82;33.89
33151;BME280;19508;42.578;23.416;2023-02-22T08:50:39;93646.59;;;17.20;33.04
33151;BME280;19508;42.578;23.416;2023-02-22T08:53:07;93645.94;;;17.10;32.97
33151;BME280;19508;42.578;23.416;2023-02-22T08:55:35;93639.59;;;17.14;33.93
33151;BME280;19508;42.578;23.416;2023-02-22T08:58:03;93631.19;;;17.30;32.73
33151;BME280;19508;42.578;23.416;2023-02-22T09:00:31;93635.81;;;16.97;33.46
33151;BME280;19508;42.578;23.416;2023-02-22T09:02:58;93642.44;;;17.09;33.68
33151;BME280;19508;42.578;23.416;2023-02-22T09:05:27;93639.34;;;17.30;33.48
33151;BME280;19508;42.578;23.416;2023-02-22T09:07:53;93641.03;;;17.86;32.11
33151;BME280;19508;42.578;23.416;2023-02-22T09:10:22;93634.66;;;18.31;32.47
33151;BME280;19508;42.578;23.416;2023-02-22T09:12:52;93639.56;;;17.47;32.65
33151;BME280;19508;42.578;23.416;2023-02-22T09:15:20;93634.44;;;18.28;31.86
33151;BME280;19508;42.578;23.416;2023-02-22T09:17:46;93624.59;;;19.44;30.74
33151;BME280;19508;42.578;23.416;2023-02-22T09:20:12;93627.00;;;19.68;29.58
33151;BME280;19508;42.578;23.416;2023-02-22T09:22:39;93627.47;;;20.01;29.28
33151;BME280;19508;42.578;23.416;2023-02-22T09:25:05;93620.00;;;18.77;30.56
33151;BME280;19508;42.578;23.416;2023-02-22T09:27:31;93620.94;;;18.59;31.36
33151;BME280;19508;42.578;23.416;2023-02-22T09:29:56;93626.81;;;18.66;30.87
33151;BME280;19508;42.578;23.416;2023-02-22T09:32:23;93619.09;;;19.35;30.99
33151;BME280;19508;42.578;23.416;2023-02-22T09:34:51;93630.78;;;19.27;30.85
33151;BME280;19508;42.578;23.416;2023-02-22T09:37:17;93622.19;;;19.42;31.68
33151;BME280;19508;42.578;23.416;2023-02-22T09:39:43;93612.34;;;20.95;28.20
33151;BME280;19508;42.578;23.416;2023-02-22T09:43:14;93595.59;;;21.69;26.89
33151;BME280;19508;42.578;23.416;2023-02-22T09:45:19;93606.97;;;21.89;27.36
33151;BME280;19508;42.578;23.416;2023-02-22T09:47:51;93606.09;;;21.67;27.21
33151;BME280;19508;42.578;23.416;2023-02-22T09:50:32;93608.09;;;21.24;28.56
33151;BME280;19508;42.578;23.416;2023-02-22T09:57:57;93600.38;;;20.39;27.24
33151;BME280;19508;42.578;23.416;2023-02-22T10:00:29;93592.53;;;20.81;27.05
33151;BME280;19508;42.578;23.416;2023-02-22T10:03:21;93592.94;;;20.31;29.69
33151;BME280;19508;42.578;23.416;2023-02-22T10:05:58;93590.75;;;21.02;27.38
33151;BME280;19508;42.578;23.416;2023-02-22T10:08:28;93587.31;;;21.40;26.47
33151;BME280;19508;42.578;23.416;2023-02-22T10:16:26;93572.75;;;21.65;26.29
33151;BME280;19508;42.578;23.416;2023-02-22T10:24:52;93557.63;;;20.87;27.23
33151;BME280;19508;42.578;23.416;2023-02-22T10:27:21;93554.75;;;21.47;26.46
33151;BME280;19508;42.578;23.416;2023-02-22T10:29:58;93553.91;;;20.82;26.42
33151;BME280;19508;42.578;23.416;2023-02-22T10:32:41;93553.25;;;21.58;25.56
33151;BME280;19508;42.578;23.416;2023-02-22T10:35:20;93542.78;;;20.88;25.96
33151;BME280;19508;42.578;23.416;2023-02-22T10:37:48;93546.13;;;21.28;25.81
33151;BME280;19508;42.578;23.416;2023-02-22T10:40:19;93535.78;;;21.33;26.20
33151;BME280;19508;42.578;23.416;2023-02-22T10:42:48;93534.91;;;21.50;25.59
33151;BME280;19508;42.578;23.416;2023-02-22T10:45:29;93527.47;;;21.04;26.36
33151;BME280;19508;42.578;23.416;2023-02-22T10:48:04;93520.31;;;21.37;26.30
33151;BME280;19508;42.578;23.416;2023-02-22T10:50:34;93521.06;;;20.91;27.37
33151;BME280;19508;42.578;23.416;2023-02-22T10:53:01;93510.91;;;20.83;26.88
33151;BME280;19508;42.578;23.416;2023-02-22T10:55:26;93511.06;;;20.95;26.23
33151;BME280;19508;42.578;23.416;2023-02-22T10:58:02;93504.41;;;21.13;25.94
33151;BME280;19508;42.578;23.416;2023-02-22T11:00:35;93506.97;;;21.27;26.86
33151;BME280;19508;42.578;23.416;2023-02-22T11:03:22;93502.88;;;20.95;27.57
33151;BME280;19508;42.578;23.416;2023-02-22T11:05:48;93489.53;;;21.70;27.47
33151;BME280;19508;42.578;23.416;2023-02-22T11:10:46;93489.59;;;21.61;26.15
33151;BME280;19508;42.578;23.416;2023-02-22T11:13:30;93491.09;;;22.30;25.24
33151;BME280;19508;42.578;23.416;2023-02-22T11:16:02;93487.78;;;22.78;25.04
33151;BME280;19508;42.578;23.416;2023-02-22T11:18:41;93483.88;;;23.33;24.05
33151;BME280;19508;42.578;23.416;2023-02-22T11:21:09;93483.72;;;23.30;24.15
33151;BME280;19508;42.578;23.416;2023-02-22T11:23:36;93483.19;;;22.70;24.83
33151;BME280;19508;42.578;23.416;2023-02-22T11:26:12;93470.06;;;21.72;25.76
33151;BME280;19508;42.578;23.416;2023-02-22T11:28:59;93478.16;;;22.18;25.60
33151;BME280;19508;42.578;23.416;2023-02-22T11:31:40;93465.84;;;21.95;26.07
33151;BME280;19508;42.578;23.416;2023-02-22T11:34:30;93478.84;;;21.56;25.32
33151;BME280;19508;42.578;23.416;2023-02-22T11:37:14;93467.31;;;22.22;25.85
33151;BME280;19508;42.578;23.416;2023-02-22T11:39:40;93455.44;;;21.59;25.89
33151;BME280;19508;42.578;23.416;2023-02-22T11:42:26;93460.50;;;21.48;25.61
33151;BME280;19508;42.578;23.416;2023-02-22T11:45:16;93461.28;;;21.78;24.91
33151;BME280;19508;42.578;23.416;2023-02-22T11:47:51;93455.09;;;21.90;24.83
33151;BME280;19508;42.578;23.416;2023-02-22T12:01:54;93450.88;;;22.55;24.12
33151;BME280;19508;42.578;23.416;2023-02-22T12:04:43;93444.84;;;22.29;24.95
33151;BME280;19508;42.578;23.416;2023-02-22T12:18:29;93430.25;;;22.91;24.28
33151;BME280;19508;42.578;23.416;2023-02-22T12:21:01;93417.69;;;23.87;23.61
33151;BME280;19508;42.578;23.416;2023-02-22T12:23:39;93423.59;;;24.14;24.33
33151;BME280;19508;42.578;23.416;2023-02-22T12:26:27;93426.66;;;23.84;23.67
33151;BME280;19508;42.578;23.416;2023-02-22T12:28:58;93416.72;;;24.20;22.84
33151;BME280;19508;42.578;23.416;2023-02-22T12:31:38;93420.84;;;24.82;22.18
33151;BME280;19508;42.578;23.416;2023-02-22T12:36:55;93421.03;;;23.81;23.29
33151;BME280;19508;42.578;23.416;2023-02-22T12:40:00;93414.03;;;23.22;23.74
33151;BME280;19508;42.578;23.416;2023-02-22T12:42:33;93418.44;;;22.24;24.88
33151;BME280;19508;42.578;23.416;2023-02-22T12:45:12;93420.16;;;22.95;24.38
33151;BME280;19508;42.578;23.416;2023-02-22T12:48:01;93409.91;;;23.16;23.84
33151;BME280;19508;42.578;23.416;2023-02-22T12:50:32;93413.94;;;22.73;24.39
33151;BME280;19508;42.578;23.416;2023-02-22T12:53:06;93409.91;;;24.02;23.33
33151;BME280;19508;42.578;23.416;2023-02-22T12:55:44;93400.81;;;24.13;22.98
33151;BME280;19508;42.578;23.416;2023-02-22T13:03:36;93397.28;;;25.13;21.77
33151;BME280;19508;42.578;23.416;2023-02-22T13:09:30;93398.94;;;24.58;22.15
33151;BME280;19508;42.578;23.416;2023-02-22T13:19:44;93385.06;;;25.61;20.41
33151;BME280;19508;42.578;23.416;2023-02-22T13:27:50;93375.00;;;28.22;18.54
33151;BME280;19508;42.578;23.416;2023-02-22T13:30:35;93378.16;;;28.84;17.74
33151;BME280;19508;42.578;23.416;2023-02-22T13:41:32;93385.91;;;27.13;19.15
33151;BME280;19508;42.578;23.416;2023-02-22T13:45:03;93373.31;;;28.14;18.79
33151;BME280;19508;42.578;23.416;2023-02-22T13:47:44;93374.25;;;27.69;18.57
33151;BME280;19508;42.578;23.416;2023-02-22T13:50:42;93374.94;;;27.89;18.71
33151;BME280;19508;42.578;23.416;2023-02-22T13:53:17;93361.97;;;27.20;19.22
33151;BME280;19508;42.578;23.416;2023-02-22T13:55:46;93366.28;;;26.76;19.53
33151;BME280;19508;42.578;23.416;2023-02-22T13:58:16;93372.16;;;27.89;19.27
33151;BME280;19508;42.578;23.416;2023-02-22T14:00:50;93365.72;;;27.81;18.43
33151;BME280;19508;42.578;23.416;2023-02-22T14:03:39;93369.56;;;28.03;18.27
33151;BME280;19508;42.578;23.416;2023-02-22T14:06:36;93371.09;;;27.70;18.19
33151;BME280;19508;42.578;23.416;2023-02-22T14:09:07;93367.97;;;27.49;18.96
33151;BME280;19508;42.578;23.416;2023-02-22T14:16:29;93369.16;;;25.54;20.52
33151;BME280;19508;42.578;23.416;2023-02-22T14:19:02;93381.53;;;25.29;20.96
33151;BME280;19508;42.578;23.416;2023-02-22T14:21:32;93376.72;;;24.79;21.14
33151;BME280;19508;42.578;23.416;2023-02-22T14:24:11;93361.16;;;25.81;20.16
33151;BME280;19508;42.578;23.416;2023-02-22T14:26:39;93358.22;;;25.74;20.03
33151;BME280;19508;42.578;23.416;2023-02-22T14:34:07;93362.66;;;26.94;19.82
33151;BME280;19508;42.578;23.416;2023-02-22T14:39:30;93365.09;;;25.48;20.86
33151;BME280;19508;42.578;23.416;2023-02-22T14:42:10;93370.31;;;22.93;22.92
33151;BME280;19508;42.578;23.416;2023-02-22T14:44:40;93378.63;;;21.55;24.77
33151;BME280;19508;42.578;23.416;2023-02-22T14:47:16;93373.41;;;20.56;25.94
33151;BME280;19508;42.578;23.416;2023-02-22T14:49:46;93369.97;;;20.77;25.86
33151;BME280;19508;42.578;23.416;2023-02-22T14:52:22;93375.75;;;19.94;26.82
33151;BME280;19508;42.578;23.416;2023-02-22T14:58:11;93376.69;;;18.58;29.36
33151;BME280;19508;42.578;23.416;2023-02-22T15:00:40;93380.81;;;18.24;29.71
33151;BME280;19508;42.578;23.416;2023-02-22T15:05:48;93379.25;;;17.65;30.66
33151;BME280;19508;42.578;23.416;2023-02-22T15:08:17;93380.69;;;17.48;30.98
33151;BME280;19508;42.578;23.416;2023-02-22T15:10:51;93372.59;;;17.35;30.99
33151;BME280;19508;42.578;23.416;2023-02-22T15:13:19;93383.19;;;17.23;31.46
33151;BME280;19508;42.578;23.416;2023-02-22T15:15:58;93376.84;;;17.13;31.74
33151;BME280;19508;42.578;23.416;2023-02-22T15:18:40;93376.97;;;16.95;32.62
33151;BME280;19508;42.578;23.416;2023-02-22T15:21:20;93384.31;;;16.67;32.85
33151;BME280;19508;42.578;23.416;2023-02-22T15:23:59;93383.56;;;16.47;33.30
33151;BME280;19508;42.578;23.416;2023-02-22T15:28:59;93388.09;;;16.24;33.81